sensor_id;sensor_type;location;lat;lon;timestamp;pressure;altitude;pressure_sealevel;temperature;humidity
21236;BME280;10775;42.678;26.324;2023-04-26T00:01:29;97656.53;;;12.90;100.00
21236;BME280;10775;42.678;26.324;2023-04-26T00:03:55;97651.97;;;12.75;100.00
21236;BME280;10775;42.678;26.324;2023-04-26T00:06:20;97649.44;;;12.73;100.00
21236;BME280;10775;42.678;26.324;2023-04-26T00:08:46;97653.47;;;12.80;100.00
21236;BME280;10775;42.678;26.324;2023-04-26T00:11:11;97666.03;;;12.74;100.00
21236;BME280;10775;42.678;26.324;2023-04-26T00:13:37;97660.69;;;12.36;100.00
21236;BME280;10775;42.678;26.324;2023-04-26T00:16:03;97659.38;;;12.46;100.00
21236;BME280;10775;42.678;26.324;2023-04-26T00:18:29;97660.53;;;12.59;100.00
21236;BME280;10775;42.678;26.324;2023-04-26T00:20:56;97664.38;;;12.71;100.00
21236;BME280;10775;42.678;26.324;2023-04-26T00:23:21;97662.06;;;12.84;100.00
21236;BME280;10775;42.678;26.324;2023-04-26T00:25:47;97659.88;;;12.94;100.00
21236;BME280;10775;42.678;26.324;2023-04-26T00:28:12;97662.28;;;12.98;100.00
21236;BME280;10775;42.678;26.324;2023-04-26T00:30:37;97662.00;;;13.04;100.00
21236;BME280;10775;42.678;26.324;2023-04-26T00:33:06;97663.06;;;13.00;100.00
21236;BME280;10775;42.678;26.324;2023-04-26T00:35:31;97672.91;;;12.95;100.00
21236;BME280;10775;42.678;26.324;2023-04-26T00:37:57;97664.53;;;12.87;100.00
21236;BME280;10775;42.678;26.324;2023-04-26T00:40:22;97673.06;;;12.92;100.00
21236;BME280;10775;42.678;26.324;2023-04-26T00:42:48;97668.66;;;12.93;100.00
21236;BME280;10775;42.678;26.324;2023-04-26T00:45:13;97664.91;;;12.98;100.00
21236;BME280;10775;42.678;26.324;2023-04-26T00:47:39;97663.16;;;12.99;100.00
21236;BME280;10775;42.678;26.324;2023-04-26T00:50:06;97661.44;;;12.98;100.00
21236;BME280;10775;42.678;26.324;2023-04-26T00:52:32;97663.84;;;13.02;100.00
21236;BME280;10775;42.678;26.324;2023-04-26T00:54:58;97654.19;;;13.03;100.00
21236;BME280;10775;42.678;26.324;2023-04-26T00:57:23;97662.91;;;13.03;100.00
21236;BME280;10775;42.678;26.324;2023-04-26T00:59:50;97655.13;;;13.02;100.00
21236;BME280;10775;42.678;26.324;2023-04-26T01:02:15;97663.84;;;13.02;100.00
21236;BME280;10775;42.678;26.324;2023-04-26T01:04:41;97655.13;;;13.02;100.00
21236;BME280;10775;42.678;26.324;2023-04-26T01:07:09;97658.09;;;12.94;100.00
21236;BME280;10775;42.678;26.324;2023-04-26T01:09:36;97651.56;;;12.84;100.00
21236;BME280;10775;42.678;26.324;2023-04-26T01:12:02;97642.88;;;12.83;100.00
21236;BME280;10775;42.678;26.324;2023-04-26T01:14:28;97643.06;;;12.79;100.00
21236;BME280;10775;42.678;26.324;2023-04-26T01:16:56;97638.59;;;12.81;100.00
21236;BME280;10775;42.678;26.324;2023-04-26T01:19:21;97650.66;;;12.85;100.00
21236;BME280;10775;42.678;26.324;2023-04-26T01:21:48;97646.97;;;12.89;100.00
21236;BME280;10775;42.678;26.324;2023-04-26T01:24:13;97644.25;;;12.91;100.00
21236;BME280;10775;42.678;26.324;2023-04-26T01:26:39;97649.31;;;12.95;100.00
21236;BME280;10775;42.678;26.324;2023-04-26T01:29:20;97645.00;;;12.94;100.00
21236;BME280;10775;42.678;26.324;2023-04-26T01:31:46;97640.75;;;12.92;100.00
21236;BME280;10775;42.678;26.324;2023-04-26T01:34:12;97643.06;;;12.79;100.00
21236;BME280;10775;42.678;26.324;2023-04-26T01:36:38;97635.34;;;12.76;100.00
21236;BME280;10775;42.678;26.324;2023-04-26T01:39:04;97649.09;;;12.81;100.00
21236;BME280;10775;42.678;26.324;2023-04-26T01:41:29;97645.69;;;12.79;100.00
21236;BME280;10775;42.678;26.324;2023-04-26T01:43:55;97638.88;;;12.75;100.00
21236;BME280;10775;42.678;26.324;2023-04-26T01:46:21;97639.06;;;12.70;100.00
21236;BME280;10775;42.678;26.324;2023-04-26T01:48:46;97646.09;;;12.70;100.00
21236;BME280;10775;42.678;26.324;2023-04-26T01:51:12;97641.44;;;12.76;100.00
21236;BME280;10775;42.678;26.324;2023-04-26T01:53:38;97637.19;;;12.74;100.00
21236;BME280;10775;42.678;26.324;2023-04-26T01:56:03;97638.22;;;12.70;100.00
21236;BME280;10775;42.678;26.324;2023-04-26T01:58:30;97643.03;;;12.60;100.00
21236;BME280;10775;42.678;26.324;2023-04-26T02:01:03;97639.84;;;12.53;100.00
21236;BME280;10775;42.678;26.324;2023-04-26T02:03:29;97626.41;;;12.40;100.00
21236;BME280;10775;42.678;26.324;2023-04-26T02:05:55;97628.06;;;12.43;100.00
21236;BME280;10775;42.678;26.324;2023-04-26T02:08:20;97623.59;;;12.45;100.00
21236;BME280;10775;42.678;26.324;2023-04-26T02:10:46;97617.19;;;12.11;100.00
21236;BME280;10775;42.678;26.324;2023-04-26T02:13:11;97619.94;;;12.08;100.00
21236;BME280;10775;42.678;26.324;2023-04-26T02:15:37;97622.88;;;12.21;100.00
21236;BME280;10775;42.678;26.324;2023-04-26T02:18:02;97629.13;;;12.18;100.00
21236;BME280;10775;42.678;26.324;2023-04-26T02:20:28;97616.28;;;12.33;100.00
21236;BME280;10775;42.678;26.324;2023-04-26T02:22:53;97618.63;;;12.39;100.00
21236;BME280;10775;42.678;26.324;2023-04-26T02:25:19;97615.75;;;12.45;100.00
21236;BME280;10775;42.678;26.324;2023-04-26T02:27:44;97620.56;;;12.54;100.00
21236;BME280;10775;42.678;26.324;2023-04-26T02:30:10;97618.72;;;12.56;100.00
21236;BME280;10775;42.678;26.324;2023-04-26T02:32:37;97614.19;;;12.60;100.00
21236;BME280;10775;42.678;26.324;2023-04-26T02:35:02;97616.03;;;12.58;100.00
21236;BME280;10775;42.678;26.324;2023-04-26T02:37:29;97618.22;;;12.48;100.00
21236;BME280;10775;42.678;26.324;2023-04-26T02:39:55;97621.09;;;12.42;100.00
21236;BME280;10775;42.678;26.324;2023-04-26T02:42:20;97618.63;;;12.39;100.00
21236;BME280;10775;42.678;26.324;2023-04-26T02:44:46;97624.38;;;12.47;100.00
21236;BME280;10775;42.678;26.324;2023-04-26T02:47:11;97622.69;;;12.46;100.00
21236;BME280;10775;42.678;26.324;2023-04-26T02:49:37;97619.13;;;12.47;100.00
21236;BME280;10775;42.678;26.324;2023-04-26T02:52:02;97619.13;;;12.47;100.00
21236;BME280;10775;42.678;26.324;2023-04-26T02:54:28;97619.13;;;12.47;100.00
21236;BME280;10775;42.678;26.324;2023-04-26T02:56:53;97615.59;;;12.48;100.00
21236;BME280;10775;42.678;26.324;2023-04-26T02:59:19;97620.69;;;12.51;100.00
21236;BME280;10775;42.678;26.324;2023-04-26T03:01:44;97620.66;;;12.53;100.00
21236;BME280;10775;42.678;26.324;2023-04-26T03:04:10;97610.84;;;12.56;100.00
21236;BME280;10775;42.678;26.324;2023-04-26T03:06:35;97614.31;;;12.57;100.00
21236;BME280;10775;42.678;26.324;2023-04-26T03:09:01;97622.19;;;12.57;100.00
21236;BME280;10775;42.678;26.324;2023-04-26T03:11:26;97615.25;;;12.56;100.00
21236;BME280;10775;42.678;26.324;2023-04-26T03:13:52;97619.50;;;12.58;100.00
21236;BME280;10775;42.678;26.324;2023-04-26T03:16:18;97619.50;;;12.58;100.00
21236;BME280;10775;42.678;26.324;2023-04-26T03:18:47;97624.25;;;12.50;100.00
21236;BME280;10775;42.678;26.324;2023-04-26T03:21:12;97617.16;;;12.52;100.00
21236;BME280;10775;42.678;26.324;2023-04-26T03:23:38;97618.78;;;12.55;100.00
21236;BME280;10775;42.678;26.324;2023-04-26T03:26:03;97614.28;;;12.58;100.00
21236;BME280;10775;42.678;26.324;2023-04-26T03:28:29;97618.59;;;12.59;100.00
21236;BME280;10775;42.678;26.324;2023-04-26T03:30:55;97628.81;;;12.66;100.00
21236;BME280;10775;42.678;26.324;2023-04-26T03:33:20;97623.56;;;12.66;100.00
21236;BME280;10775;42.678;26.324;2023-04-26T03:35:46;97618.19;;;12.69;100.00
21236;BME280;10775;42.678;26.324;2023-04-26T03:38:11;97622.56;;;12.68;100.00
21236;BME280;10775;42.678;26.324;2023-04-26T03:40:37;97620.06;;;12.65;100.00
21236;BME280;10775;42.678;26.324;2023-04-26T03:43:02;97626.31;;;12.62;100.00
21236;BME280;10775;42.678;26.324;2023-04-26T03:45:28;97634.47;;;12.56;100.00
21236;BME280;10775;42.678;26.324;2023-04-26T03:47:53;97638.00;;;12.55;100.00
21236;BME280;10775;42.678;26.324;2023-04-26T03:50:19;97639.06;;;12.51;100.00
21236;BME280;10775;42.678;26.324;2023-04-26T03:52:45;97643.38;;;12.52;100.00
21236;BME280;10775;42.678;26.324;2023-04-26T03:55:10;97646.63;;;12.57;100.00
21236;BME280;10775;42.678;26.324;2023-04-26T03:57:36;97645.72;;;12.58;100.00
21236;BME280;10775;42.678;26.324;2023-04-26T04:00:03;97648.41;;;12.57;100.00
21236;BME280;10775;42.678;26.324;2023-04-26T04:02:36;97652.22;;;12.50;100.00
21236;BME280;10775;42.678;26.324;2023-04-26T04:05:01;97652.44;;;12.45;100.00
21236;BME280;10775;42.678;26.324;2023-04-26T04:07:27;97655.81;;;12.47;100.00
21236;BME280;10775;42.678;26.324;2023-04-26T04:09:52;97663.78;;;12.46;100.00
21236;BME280;10775;42.678;26.324;2023-04-26T04:12:17;97665.47;;;12.47;100.00
21236;BME280;10775;42.678;26.324;2023-04-26T04:14:43;97656.56;;;12.51;100.00
21236;BME280;10775;42.678;26.324;2023-04-26T04:17:08;97661.00;;;12.49;100.00
21236;BME280;10775;42.678;26.324;2023-04-26T04:19:34;97665.47;;;12.47;100.00
21236;BME280;10775;42.678;26.324;2023-04-26T04:22:00;97674.06;;;12.50;100.00
21236;BME280;10775;42.678;26.324;2023-04-26T04:24:25;97673.28;;;12.48;100.00
21236;BME280;10775;42.678;26.324;2023-04-26T04:26:50;97675.47;;;12.37;100.00
21236;BME280;10775;42.678;26.324;2023-04-26T04:29:16;97674.19;;;12.27;100.00
21236;BME280;10775;42.678;26.324;2023-04-26T04:31:42;97687.28;;;12.27;100.00
21236;BME280;10775;42.678;26.324;2023-04-26T04:34:07;97687.94;;;12.32;100.00
21236;BME280;10775;42.678;26.324;2023-04-26T04:36:33;97692.84;;;12.19;100.00
21236;BME280;10775;42.678;26.324;2023-04-26T04:38:58;97695.28;;;12.24;100.00
21236;BME280;10775;42.678;26.324;2023-04-26T04:41:24;97696.84;;;12.28;100.00
21236;BME280;10775;42.678;26.324;2023-04-26T04:43:49;97703.94;;;12.26;100.00
21236;BME280;10775;42.678;26.324;2023-04-26T04:46:15;97707.22;;;12.31;100.00
21236;BME280;10775;42.678;26.324;2023-04-26T04:48:41;97713.41;;;12.08;100.00
21236;BME280;10775;42.678;26.324;2023-04-26T04:51:07;97718.56;;;11.89;100.00
21236;BME280;10775;42.678;26.324;2023-04-26T04:53:33;97717.97;;;11.59;100.00
21236;BME280;10775;42.678;26.324;2023-04-26T04:55:58;97712.78;;;11.57;100.00
21236;BME280;10775;42.678;26.324;2023-04-26T04:58:25;97714.81;;;11.50;100.00
21236;BME280;10775;42.678;26.324;2023-04-26T05:00:50;97715.94;;;11.43;100.00
21236;BME280;10775;42.678;26.324;2023-04-26T05:03:18;97721.69;;;11.53;100.00
21236;BME280;10775;42.678;26.324;2023-04-26T05:05:43;97717.25;;;11.77;100.00
21236;BME280;10775;42.678;26.324;2023-04-26T05:08:09;97714.06;;;11.69;100.00
21236;BME280;10775;42.678;26.324;2023-04-26T05:10:35;97714.06;;;11.69;100.00
21236;BME280;10775;42.678;26.324;2023-04-26T05:13:00;97719.69;;;11.82;100.00
21236;BME280;10775;42.678;26.324;2023-04-26T05:15:26;97719.22;;;11.94;100.00
21236;BME280;10775;42.678;26.324;2023-04-26T05:17:51;97713.66;;;11.80;100.00
21236;BME280;10775;42.678;26.324;2023-04-26T05:20:17;97706.06;;;11.73;100.00
21236;BME280;10775;42.678;26.324;2023-04-26T05:22:42;97717.34;;;11.52;100.00
21236;BME280;10775;42.678;26.324;2023-04-26T05:25:08;97723.19;;;11.37;100.00
21236;BME280;10775;42.678;26.324;2023-04-26T05:27:35;97709.16;;;11.16;100.00
21236;BME280;10775;42.678;26.324;2023-04-26T05:30:03;97717.28;;;11.08;100.00
21236;BME280;10775;42.678;26.324;2023-04-26T05:32:28;97711.00;;;10.88;100.00
21236;BME280;10775;42.678;26.324;2023-04-26T05:34:54;97711.41;;;10.53;100.00
21236;BME280;10775;42.678;26.324;2023-04-26T05:37:19;97714.25;;;10.47;100.00
21236;BME280;10775;42.678;26.324;2023-04-26T05:39:45;97700.94;;;10.54;100.00
21236;BME280;10775;42.678;26.324;2023-04-26T05:42:10;97707.53;;;10.64;100.00
21236;BME280;10775;42.678;26.324;2023-04-26T05:44:36;97704.97;;;10.63;100.00
21236;BME280;10775;42.678;26.324;2023-04-26T05:47:01;97699.38;;;10.49;100.00
21236;BME280;10775;42.678;26.324;2023-04-26T05:49:27;97696.53;;;10.55;100.00
21236;BME280;10775;42.678;26.324;2023-04-26T05:51:52;97696.41;;;10.83;100.00
21236;BME280;10775;42.678;26.324;2023-04-26T05:54:18;97695.84;;;10.98;100.00
21236;BME280;10775;42.678;26.324;2023-04-26T05:56:43;97697.16;;;11.10;100.00
21236;BME280;10775;42.678;26.324;2023-04-26T05:59:09;97686.38;;;11.41;100.00
21236;BME280;10775;42.678;26.324;2023-04-26T06:01:34;97687.34;;;11.61;100.00
21236;BME280;10775;42.678;26.324;2023-04-26T06:03:59;97690.44;;;11.70;100.00
21236;BME280;10775;42.678;26.324;2023-04-26T06:06:25;97684.72;;;11.83;100.00
21236;BME280;10775;42.678;26.324;2023-04-26T06:08:52;97679.88;;;11.73;100.00
21236;BME280;10775;42.678;26.324;2023-04-26T06:11:18;97678.63;;;11.60;100.00
21236;BME280;10775;42.678;26.324;2023-04-26T06:13:43;97671.09;;;11.74;100.00
21236;BME280;10775;42.678;26.324;2023-04-26T06:16:09;97674.84;;;11.67;100.00
21236;BME280;10775;42.678;26.324;2023-04-26T06:18:34;97673.41;;;11.60;100.00
21236;BME280;10775;42.678;26.324;2023-04-26T06:21:00;97673.25;;;11.87;100.00
21236;BME280;10775;42.678;26.324;2023-04-26T06:23:25;97667.91;;;12.10;100.00
21236;BME280;10775;42.678;26.324;2023-04-26T06:25:51;97669.22;;;12.21;100.00
21236;BME280;10775;42.678;26.324;2023-04-26T06:28:16;97661.72;;;12.32;100.00
21236;BME280;10775;42.678;26.324;2023-04-26T06:30:42;97656.13;;;12.60;100.00
21236;BME280;10775;42.678;26.324;2023-04-26T06:33:07;97656.19;;;12.79;100.00
21236;BME280;10775;42.678;26.324;2023-04-26T06:35:38;97659.44;;;13.03;100.00
21236;BME280;10775;42.678;26.324;2023-04-26T06:38:04;97652.84;;;13.13;100.00
21236;BME280;10775;42.678;26.324;2023-04-26T06:40:30;97662.56;;;13.11;94.73
21236;BME280;10775;42.678;26.324;2023-04-26T06:42:55;97654.69;;;13.85;97.90
21236;BME280;10775;42.678;26.324;2023-04-26T06:45:21;97658.09;;;13.87;89.51
21236;BME280;10775;42.678;26.324;2023-04-26T06:47:46;97653.34;;;13.59;92.06
21236;BME280;10775;42.678;26.324;2023-04-26T06:50:15;97662.47;;;13.69;98.99
21236;BME280;10775;42.678;26.324;2023-04-26T06:52:40;97663.06;;;13.94;98.97
21236;BME280;10775;42.678;26.324;2023-04-26T06:55:06;97664.44;;;13.83;94.32
21236;BME280;10775;42.678;26.324;2023-04-26T06:57:31;97662.06;;;13.96;100.00
21236;BME280;10775;42.678;26.324;2023-04-26T06:59:57;97667.59;;;13.90;99.78
21236;BME280;10775;42.678;26.324;2023-04-26T07:02:22;97668.00;;;14.00;100.00
21236;BME280;10775;42.678;26.324;2023-04-26T07:04:48;97669.25;;;13.56;95.00
21236;BME280;10775;42.678;26.324;2023-04-26T07:07:14;97664.66;;;13.79;100.00
21236;BME280;10775;42.678;26.324;2023-04-26T07:09:40;97663.13;;;13.92;100.00
21236;BME280;10775;42.678;26.324;2023-04-26T07:12:06;97668.44;;;13.90;99.50
21236;BME280;10775;42.678;26.324;2023-04-26T07:14:32;97674.94;;;14.01;99.66
21236;BME280;10775;42.678;26.324;2023-04-26T07:16:57;97665.06;;;14.23;100.00
21236;BME280;10775;42.678;26.324;2023-04-26T07:19:22;97668.91;;;14.33;100.00
21236;BME280;10775;42.678;26.324;2023-04-26T07:21:48;97668.91;;;14.51;100.00
21236;BME280;10775;42.678;26.324;2023-04-26T07:24:13;97671.03;;;14.77;100.00
21236;BME280;10775;42.678;26.324;2023-04-26T07:26:40;97670.16;;;14.44;100.00
21236;BME280;10775;42.678;26.324;2023-04-26T07:29:05;97668.34;;;14.79;100.00
21236;BME280;10775;42.678;26.324;2023-04-26T07:31:31;97666.75;;;14.59;96.73
21236;BME280;10775;42.678;26.324;2023-04-26T07:33:57;97664.97;;;14.93;100.00
21236;BME280;10775;42.678;26.324;2023-04-26T07:36:22;97667.41;;;14.80;100.00
21236;BME280;10775;42.678;26.324;2023-04-26T07:38:48;97666.53;;;15.13;100.00
21236;BME280;10775;42.678;26.324;2023-04-26T07:41:14;97673.53;;;15.30;100.00
21236;BME280;10775;42.678;26.324;2023-04-26T07:43:41;97676.31;;;15.27;100.00
21236;BME280;10775;42.678;26.324;2023-04-26T07:46:07;97671.63;;;15.16;100.00
21236;BME280;10775;42.678;26.324;2023-04-26T07:48:32;97675.78;;;15.04;100.00
21236;BME280;10775;42.678;26.324;2023-04-26T07:51:06;97681.72;;;15.23;100.00
21236;BME280;10775;42.678;26.324;2023-04-26T07:53:32;97685.97;;;14.77;91.40
21236;BME280;10775;42.678;26.324;2023-04-26T07:55:57;97691.38;;;14.58;95.28
21236;BME280;10775;42.678;26.324;2023-04-26T07:58:23;97690.09;;;14.48;86.47
21236;BME280;10775;42.678;26.324;2023-04-26T08:00:48;97687.94;;;14.73;89.73
21236;BME280;10775;42.678;26.324;2023-04-26T08:03:14;97682.50;;;15.26;96.63
21236;BME280;10775;42.678;26.324;2023-04-26T08:05:42;97683.50;;;15.72;100.00
21236;BME280;10775;42.678;26.324;2023-04-26T08:08:07;97680.94;;;16.17;98.38
21236;BME280;10775;42.678;26.324;2023-04-26T08:10:32;97683.19;;;16.53;100.00
21236;BME280;10775;42.678;26.324;2023-04-26T08:12:58;97688.94;;;16.74;97.38
21236;BME280;10775;42.678;26.324;2023-04-26T08:15:27;97683.72;;;16.88;100.00
21236;BME280;10775;42.678;26.324;2023-04-26T08:17:53;97676.53;;;17.19;93.91
21236;BME280;10775;42.678;26.324;2023-04-26T08:20:18;97685.41;;;16.89;93.27
21236;BME280;10775;42.678;26.324;2023-04-26T08:22:45;97681.25;;;16.41;100.00
21236;BME280;10775;42.678;26.324;2023-04-26T08:25:10;97687.31;;;16.87;100.00
21236;BME280;10775;42.678;26.324;2023-04-26T08:27:36;97670.78;;;17.12;98.03
21236;BME280;10775;42.678;26.324;2023-04-26T08:30:02;97664.81;;;17.37;98.73
21236;BME280;10775;42.678;26.324;2023-04-26T08:32:28;97672.28;;;17.72;94.71
21236;BME280;10775;42.678;26.324;2023-04-26T08:34:53;97669.78;;;18.11;93.56
21236;BME280;10775;42.678;26.324;2023-04-26T08:37:19;97675.25;;;18.60;93.04
21236;BME280;10775;42.678;26.324;2023-04-26T08:39:45;97672.75;;;20.08;81.43
21236;BME280;10775;42.678;26.324;2023-04-26T08:42:15;97664.41;;;20.01;80.04
21236;BME280;10775;42.678;26.324;2023-04-26T08:44:43;97670.50;;;19.17;79.23
21236;BME280;10775;42.678;26.324;2023-04-26T08:47:15;97667.22;;;18.49;81.30
21236;BME280;10775;42.678;26.324;2023-04-26T08:49:44;97664.91;;;18.04;85.14
21236;BME280;10775;42.678;26.324;2023-04-26T08:52:13;97660.19;;;19.74;84.07
21236;BME280;10775;42.678;26.324;2023-04-26T08:54:41;97660.25;;;19.86;78.32
21236;BME280;10775;42.678;26.324;2023-04-26T08:57:07;97656.59;;;20.81;79.84
21236;BME280;10775;42.678;26.324;2023-04-26T08:59:36;97653.44;;;21.10;73.03
21236;BME280;10775;42.678;26.324;2023-04-26T09:02:06;97655.13;;;19.59;69.85
21236;BME280;10775;42.678;26.324;2023-04-26T09:04:32;97664.16;;;20.28;75.86
21236;BME280;10775;42.678;26.324;2023-04-26T09:07:00;97661.53;;;20.97;72.73
21236;BME280;10775;42.678;26.324;2023-04-26T09:09:34;97660.88;;;20.60;75.43
21236;BME280;10775;42.678;26.324;2023-04-26T09:12:02;97657.38;;;20.59;70.41
21236;BME280;10775;42.678;26.324;2023-04-26T09:14:28;97655.84;;;20.79;71.84
21236;BME280;10775;42.678;26.324;2023-04-26T09:16:53;97656.09;;;20.88;71.57
21236;BME280;10775;42.678;26.324;2023-04-26T09:19:38;97652.63;;;20.52;65.54
21236;BME280;10775;42.678;26.324;2023-04-26T09:22:07;97652.63;;;20.52;73.79
21236;BME280;10775;42.678;26.324;2023-04-26T09:24:49;97641.97;;;21.21;74.82
21236;BME280;10775;42.678;26.324;2023-04-26T09:27:17;97637.34;;;21.34;70.62
21236;BME280;10775;42.678;26.324;2023-04-26T09:32:25;97649.06;;;21.32;70.30
21236;BME280;10775;42.678;26.324;2023-04-26T09:34:51;97649.97;;;20.52;67.92
21236;BME280;10775;42.678;26.324;2023-04-26T09:37:17;97652.91;;;19.89;72.76
21236;BME280;10775;42.678;26.324;2023-04-26T09:39:42;97651.16;;;19.40;72.19
21236;BME280;10775;42.678;26.324;2023-04-26T09:42:09;97654.38;;;18.43;68.86
21236;BME280;10775;42.678;26.324;2023-04-26T09:44:35;97652.06;;;18.38;75.48
21236;BME280;10775;42.678;26.324;2023-04-26T09:47:09;97647.91;;;18.21;71.34
21236;BME280;10775;42.678;26.324;2023-04-26T09:49:46;97649.63;;;18.48;82.07
21236;BME280;10775;42.678;26.324;2023-04-26T09:52:18;97648.56;;;18.38;72.77
21236;BME280;10775;42.678;26.324;2023-04-26T09:57:14;97650.53;;;17.81;70.20
21236;BME280;10775;42.678;26.324;2023-04-26T09:59:51;97651.41;;;18.35;85.60
21236;BME280;10775;42.678;26.324;2023-04-26T10:02:22;97645.94;;;18.63;81.24
21236;BME280;10775;42.678;26.324;2023-04-26T10:04:50;97640.44;;;18.41;78.89
21236;BME280;10775;42.678;26.324;2023-04-26T10:07:18;97647.66;;;17.99;84.85
21236;BME280;10775;42.678;26.324;2023-04-26T10:09:45;97647.56;;;18.00;84.35
21236;BME280;10775;42.678;26.324;2023-04-26T10:12:13;97644.69;;;17.76;80.34
21236;BME280;10775;42.678;26.324;2023-04-26T10:14:39;97642.03;;;17.91;90.58
21236;BME280;10775;42.678;26.324;2023-04-26T10:17:06;97645.13;;;17.97;90.15
21236;BME280;10775;42.678;26.324;2023-04-26T10:19:33;97647.41;;;17.48;89.34
21236;BME280;10775;42.678;26.324;2023-04-26T10:22:03;97646.78;;;17.44;88.19
21236;BME280;10775;42.678;26.324;2023-04-26T10:24:29;97639.78;;;17.43;92.73
21236;BME280;10775;42.678;26.324;2023-04-26T10:26:55;97643.75;;;17.50;86.68
21236;BME280;10775;42.678;26.324;2023-04-26T10:30:27;97637.41;;;17.53;94.04
21236;BME280;10775;42.678;26.324;2023-04-26T10:35:19;97640.09;;;17.80;91.97
21236;BME280;10775;42.678;26.324;2023-04-26T10:40:34;97634.06;;;18.18;95.75
21236;BME280;10775;42.678;26.324;2023-04-26T10:45:40;97620.41;;;18.24;87.92
21236;BME280;10775;42.678;26.324;2023-04-26T10:58:49;97616.38;;;20.28;78.79
21236;BME280;10775;42.678;26.324;2023-04-26T11:01:31;97614.06;;;20.59;75.15
21236;BME280;10775;42.678;26.324;2023-04-26T11:06:23;97610.59;;;20.34;79.79
21236;BME280;10775;42.678;26.324;2023-04-26T11:08:49;97617.34;;;20.27;71.21
21236;BME280;10775;42.678;26.324;2023-04-26T11:11:16;97605.84;;;19.56;66.52
21236;BME280;10775;42.678;26.324;2023-04-26T11:13:44;97607.88;;;19.16;74.09
21236;BME280;10775;42.678;26.324;2023-04-26T11:18:41;97597.44;;;18.63;72.13
21236;BME280;10775;42.678;26.324;2023-04-26T11:21:07;97599.66;;;19.07;77.90
21236;BME280;10775;42.678;26.324;2023-04-26T11:23:33;97604.41;;;19.15;75.86
21236;BME280;10775;42.678;26.324;2023-04-26T11:26:02;97602.38;;;19.19;70.50
21236;BME280;10775;42.678;26.324;2023-04-26T11:28:32;97601.97;;;18.99;82.22
21236;BME280;10775;42.678;26.324;2023-04-26T11:30:58;97604.13;;;18.81;73.53
21236;BME280;10775;42.678;26.324;2023-04-26T11:33:24;97604.84;;;18.71;74.22
21236;BME280;10775;42.678;26.324;2023-04-26T11:35:54;97607.28;;;18.74;81.47
21236;BME280;10775;42.678;26.324;2023-04-26T11:38:25;97605.59;;;18.98;77.99
21236;BME280;10775;42.678;26.324;2023-04-26T11:41:04;97601.66;;;19.04;83.26
21236;BME280;10775;42.678;26.324;2023-04-26T11:43:37;97611.13;;;18.44;81.63
21236;BME280;10775;42.678;26.324;2023-04-26T11:46:04;97617.47;;;18.54;81.41
21236;BME280;10775;42.678;26.324;2023-04-26T11:48:31;97609.75;;;18.64;85.95
21236;BME280;10775;42.678;26.324;2023-04-26T11:50:59;97608.69;;;18.92;90.08
21236;BME280;10775;42.678;26.324;2023-04-26T11:53:34;97606.56;;;18.97;88.22
21236;BME280;10775;42.678;26.324;2023-04-26T11:56:00;97611.88;;;18.84;85.46
21236;BME280;10775;42.678;26.324;2023-04-26T11:58:26;97611.53;;;18.76;91.47
21236;BME280;10775;42.678;26.324;2023-04-26T12:00:59;97616.50;;;18.55;85.25
21236;BME280;10775;42.678;26.324;2023-04-26T12:03:33;97612.03;;;18.17;91.02
21236;BME280;10775;42.678;26.324;2023-04-26T12:06:05;97620.19;;;18.14;88.55
21236;BME280;10775;42.678;26.324;2023-04-26T12:08:31;97615.84;;;18.13;90.92
21236;BME280;10775;42.678;26.324;2023-04-26T12:11:01;97622.50;;;18.06;97.60
21236;BME280;10775;42.678;26.324;2023-04-26T12:13:28;97622.97;;;17.86;96.17
21236;BME280;10775;42.678;26.324;2023-04-26T12:15:53;97616.94;;;17.84;100.00
21236;BME280;10775;42.678;26.324;2023-04-26T12:18:19;97609.16;;;17.68;98.21
21236;BME280;10775;42.678;26.324;2023-04-26T12:20:45;97619.13;;;17.50;98.84
21236;BME280;10775;42.678;26.324;2023-04-26T12:23:14;97623.84;;;17.45;100.00
21236;BME280;10775;42.678;26.324;2023-04-26T12:25:41;97626.84;;;17.11;89.63
21236;BME280;10775;42.678;26.324;2023-04-26T12:28:15;97626.94;;;17.10;100.00
21236;BME280;10775;42.678;26.324;2023-04-26T12:30:40;97623.16;;;17.14;100.00
21236;BME280;10775;42.678;26.324;2023-04-26T12:33:06;97619.97;;;17.23;100.00
21236;BME280;10775;42.678;26.324;2023-04-26T12:35:32;97624.88;;;17.01;100.00
21236;BME280;10775;42.678;26.324;2023-04-26T12:37:58;97620.16;;;16.77;100.00
21236;BME280;10775;42.678;26.324;2023-04-26T12:40:26;97628.53;;;16.55;100.00
21236;BME280;10775;42.678;26.324;2023-04-26T12:42:52;97626.13;;;16.22;100.00
21236;BME280;10775;42.678;26.324;2023-04-26T12:45:20;97620.81;;;16.07;100.00
21236;BME280;10775;42.678;26.324;2023-04-26T12:47:46;97625.75;;;16.14;100.00
21236;BME280;10775;42.678;26.324;2023-04-26T12:50:13;97626.84;;;16.09;100.00
21236;BME280;10775;42.678;26.324;2023-04-26T12:52:39;97615.00;;;16.17;100.00
21236;BME280;10775;42.678;26.324;2023-04-26T12:55:06;97621.63;;;16.38;100.00
21236;BME280;10775;42.678;26.324;2023-04-26T12:57:33;97627.47;;;16.43;100.00
21236;BME280;10775;42.678;26.324;2023-04-26T12:59:59;97618.06;;;16.39;100.00
21236;BME280;10775;42.678;26.324;2023-04-26T13:02:24;97621.34;;;16.43;100.00
21236;BME280;10775;42.678;26.324;2023-04-26T13:04:50;97632.75;;;16.43;100.00
21236;BME280;10775;42.678;26.324;2023-04-26T13:07:15;97628.44;;;16.42;100.00
21236;BME280;10775;42.678;26.324;2023-04-26T13:09:41;97626.75;;;16.41;100.00